createdAt,value
2022-08-27T00:30:03.363Z,1007
2022-08-27T00:30:44.253Z,1007.01
2022-08-27T00:31:25.668Z,1007.02
2022-08-27T00:32:06.235Z,1007.02
2022-08-27T00:32:47.175Z,1007.01
2022-08-27T00:33:28.174Z,1007.02
2022-08-27T00:34:09.544Z,1007.01
2022-08-27T00:34:50.482Z,1006.99
2022-08-27T00:35:31.467Z,1006.99
2022-08-27T00:36:12.530Z,1006.99
2022-08-27T00:36:53.565Z,1006.98
2022-08-27T00:37:34.535Z,1006.95
2022-08-27T00:38:15.478Z,1006.94
2022-08-27T00:39:37.431Z,1006.94
2022-08-27T00:40:18.475Z,1006.94
2022-08-27T00:40:59.448Z,1006.93
2022-08-27T00:41:40.376Z,1006.9
2022-08-27T00:42:21.354Z,1006.9
2022-08-27T00:43:02.376Z,1006.94
2022-08-27T00:43:43.275Z,1006.89
2022-08-27T00:44:24.265Z,1006.89
2022-08-27T00:45:05.261Z,1006.93
2022-08-27T00:45:46.266Z,1006.97
2022-08-27T00:46:27.222Z,1006.95
2022-08-27T00:47:09.001Z,1006.97
2022-08-27T00:47:49.341Z,1006.98
2022-08-27T00:48:30.312Z,1006.97
2022-08-27T00:49:11.331Z,1006.95
2022-08-27T00:49:52.308Z,1006.96
2022-08-27T00:50:33.250Z,1006.97
2022-08-27T00:51:14.279Z,1006.96
2022-08-27T00:51:55.216Z,1006.98
2022-08-27T00:52:36.190Z,1007
2022-08-27T00:53:17.217Z,1006.95
2022-08-27T00:53:58.198Z,1006.94
2022-08-27T00:54:39.159Z,1006.95
2022-08-27T00:55:20.091Z,1006.97
2022-08-27T00:56:01.084Z,1006.99
2022-08-27T00:56:42.053Z,1007
2022-08-27T00:57:23.011Z,1007.01
2022-08-27T00:58:05.730Z,1006.99
2022-08-27T00:58:44.965Z,1006.98
2022-08-27T01:00:06.949Z,1006.98
2022-08-27T01:00:47.956Z,1006.96
2022-08-27T01:01:28.947Z,1006.98
2022-08-27T01:02:09.851Z,1006.98
2022-08-27T01:02:50.805Z,1007
2022-08-27T01:03:31.738Z,1006.95
2022-08-27T01:04:12.861Z,1006.95
2022-08-27T01:04:53.834Z,1006.9
2022-08-27T01:05:34.808Z,1006.94
2022-08-27T01:06:15.975Z,1006.92
2022-08-27T01:06:56.825Z,1006.93
2022-08-27T01:07:37.732Z,1006.89
2022-08-27T01:08:18.696Z,1006.89
2022-08-27T01:08:59.681Z,1006.91
2022-08-27T01:10:21.664Z,1006.85
2022-08-27T01:11:02.603Z,1006.85
2022-08-27T01:11:43.631Z,1006.84
2022-08-27T01:12:24.584Z,1006.87
2022-08-27T01:13:05.581Z,1006.84
2022-08-27T01:13:58.836Z,1006.85
2022-08-27T01:14:27.588Z,1006.85
2022-08-27T01:15:08.629Z,1006.84
2022-08-27T01:15:49.623Z,1006.81
2022-08-27T01:16:30.662Z,1006.85
2022-08-27T01:17:52.562Z,1006.89
2022-08-27T01:18:33.571Z,1006.86
2022-08-27T01:19:14.544Z,1006.89
2022-08-27T01:19:55.543Z,1006.89
2022-08-27T01:20:36.470Z,1006.88
2022-08-27T01:21:17.487Z,1006.88
2022-08-27T01:21:58.474Z,1006.9
2022-08-27T01:22:39.455Z,1006.89
2022-08-27T01:23:20.470Z,1006.88
2022-08-27T01:24:01.434Z,1006.88
2022-08-27T01:24:42.441Z,1006.92
2022-08-27T01:25:23.493Z,1006.87
2022-08-27T01:26:04.511Z,1006.91
2022-08-27T01:26:45.450Z,1006.92
2022-08-27T01:28:07.476Z,1006.91
2022-08-27T01:28:48.303Z,1006.88
2022-08-27T01:29:29.350Z,1006.85
2022-08-27T01:30:10.349Z,1006.88
2022-08-27T01:30:52.108Z,1006.88
2022-08-27T01:31:32.353Z,1006.85
2022-08-27T01:32:13.285Z,1006.89
2022-08-27T01:32:54.273Z,1006.83
2022-08-27T01:33:35.324Z,1006.8
2022-08-27T01:34:16.293Z,1006.81
2022-08-27T01:35:40.130Z,1006.79
2022-08-27T01:36:19.248Z,1006.82
2022-08-27T01:37:00.239Z,1006.79
2022-08-27T01:37:41.240Z,1006.8
2022-08-27T01:38:30.553Z,1006.8
2022-08-27T01:39:03.189Z,1006.81
2022-08-27T01:39:44.546Z,1006.76
2022-08-27T01:40:25.270Z,1006.79
2022-08-27T01:41:06.095Z,1006.75
2022-08-27T01:41:47.036Z,1006.78
2022-08-27T01:42:28.188Z,1006.75
2022-08-27T01:43:09.160Z,1006.74
2022-08-27T01:43:50.168Z,1006.74
2022-08-27T01:44:31.163Z,1006.77
2022-08-27T01:45:12.089Z,1006.76
2022-08-27T01:45:53.134Z,1006.77
2022-08-27T01:46:34.126Z,1006.79
2022-08-27T01:47:15.103Z,1006.75
2022-08-27T01:47:56.092Z,1006.74
2022-08-27T01:48:37.053Z,1006.79
2022-08-27T01:49:18.053Z,1006.8
2022-08-27T01:49:59.184Z,1006.8
2022-08-27T01:50:40.138Z,1006.75
2022-08-27T01:51:21.196Z,1006.79
2022-08-27T01:52:02.207Z,1006.78
2022-08-27T01:52:43.152Z,1006.78
2022-08-27T01:53:24.107Z,1006.74
2022-08-27T01:54:05.124Z,1006.76
2022-08-27T01:54:46.100Z,1006.76
2022-08-27T01:55:27.008Z,1006.79
2022-08-27T01:56:08.053Z,1006.76
2022-08-27T01:56:48.991Z,1006.78
2022-08-27T01:57:29.991Z,1006.81
2022-08-27T01:58:14.084Z,1006.76
2022-08-27T01:58:51.868Z,1006.78
2022-08-27T01:59:39.290Z,1006.77
2022-08-27T02:00:13.814Z,1006.77
2022-08-27T02:00:56.177Z,1006.76
2022-08-27T02:01:35.721Z,1006.79
2022-08-27T02:02:16.888Z,1006.77
2022-08-27T02:03:38.733Z,1006.8
2022-08-27T02:04:19.694Z,1006.75
2022-08-27T02:05:00.783Z,1006.78
2022-08-27T02:05:44.869Z,1006.78
2022-08-27T02:06:22.680Z,1006.78
2022-08-27T02:07:03.672Z,1006.77
2022-08-27T02:09:16.706Z,1006.75
2022-08-27T02:09:57.169Z,1006.79
2022-08-27T02:10:37.633Z,1006.79
2022-08-27T02:11:18.122Z,1006.79
2022-08-27T02:11:58.612Z,1006.78
2022-08-27T02:12:39.068Z,1006.81
2022-08-27T02:13:19.566Z,1006.77
2022-08-27T02:14:00.004Z,1006.76
2022-08-27T02:14:40.522Z,1006.77
2022-08-27T02:16:01.558Z,1006.73
2022-08-27T02:16:42.699Z,1006.8
2022-08-27T02:17:22.517Z,1006.74
2022-08-27T02:18:03.109Z,1006.78
2022-08-27T02:18:43.526Z,1006.76
2022-08-27T02:19:23.991Z,1006.8
2022-08-27T02:20:05.140Z,1006.79
2022-08-27T02:20:45.678Z,1006.81
2022-08-27T02:21:26.162Z,1006.78
2022-08-27T02:22:06.592Z,1006.78
2022-08-27T02:23:27.565Z,1006.75
2022-08-27T02:24:08.119Z,1006.74
2022-08-27T02:24:48.553Z,1006.71
2022-08-27T02:25:29.073Z,1006.69
2022-08-27T02:26:09.573Z,1006.71
2022-08-27T02:26:50.059Z,1006.67
2022-08-27T02:27:30.532Z,1006.69
2022-08-27T02:28:11.183Z,1006.66
2022-08-27T02:28:51.468Z,1006.65
2022-08-27T02:29:31.916Z,1006.7
2022-08-27T02:30:52.882Z,1006.67
2022-08-27T02:31:33.420Z,1006.66
2022-08-27T02:32:17.547Z,1006.67
2022-08-27T02:32:54.288Z,1006.68
2022-08-27T02:33:34.760Z,1006.66
2022-08-27T02:34:15.254Z,1006.71
2022-08-27T02:34:55.768Z,1006.68
2022-08-27T02:35:36.237Z,1006.73
2022-08-27T02:36:16.709Z,1006.69
2022-08-27T02:36:57.171Z,1006.72
2022-08-27T02:37:37.680Z,1006.7
2022-08-27T02:38:18.193Z,1006.66
2022-08-27T02:38:58.687Z,1006.68
2022-08-27T02:39:41.248Z,1006.71
2022-08-27T02:40:19.750Z,1006.7
2022-08-27T02:41:00.147Z,1006.69
2022-08-27T02:41:40.629Z,1006.65
2022-08-27T02:42:21.087Z,1006.69
2022-08-27T02:43:01.601Z,1006.67
2022-08-27T02:43:42.119Z,1006.69
2022-08-27T02:44:22.633Z,1006.7
2022-08-27T02:45:03.098Z,1006.72
2022-08-27T02:45:43.541Z,1006.71
2022-08-27T02:46:24.045Z,1006.69
2022-08-27T02:47:04.496Z,1006.68
2022-08-27T02:48:25.512Z,1006.7
2022-08-27T02:49:05.985Z,1006.69
2022-08-27T02:49:46.450Z,1006.7
2022-08-27T02:50:27.433Z,1006.65
2022-08-27T02:51:07.474Z,1006.68
2022-08-27T02:51:47.983Z,1006.67
2022-08-27T02:52:28.545Z,1006.67
2022-08-27T02:53:08.985Z,1006.63
2022-08-27T02:53:49.454Z,1006.61
2022-08-27T02:54:29.881Z,1006.64
2022-08-27T02:55:50.909Z,1006.66
2022-08-27T02:56:31.343Z,1006.64
2022-08-27T02:57:11.807Z,1006.62
2022-08-27T02:57:52.281Z,1006.64
2022-08-27T02:58:32.763Z,1006.62
2022-08-27T02:59:13.272Z,1006.66
2022-08-27T02:59:53.715Z,1006.62
2022-08-27T03:00:34.241Z,1006.67
2022-08-27T03:01:14.667Z,1006.66
2022-08-27T03:01:55.358Z,1006.64
2022-08-27T03:02:35.777Z,1006.63
2022-08-27T03:03:16.134Z,1006.61
2022-08-27T03:03:56.630Z,1006.62
2022-08-27T03:04:37.129Z,1006.63
2022-08-27T03:05:58.041Z,1006.62
2022-08-27T03:06:38.499Z,1006.62
2022-08-27T03:07:19.156Z,1006.57
2022-08-27T03:07:59.461Z,1006.55
2022-08-27T03:08:52.533Z,1006.56
2022-08-27T03:09:20.399Z,1006.57
2022-08-27T03:10:00.902Z,1006.59
2022-08-27T03:10:41.373Z,1006.56
2022-08-27T03:11:21.846Z,1006.59
2022-08-27T03:12:02.311Z,1006.58
2022-08-27T03:12:42.819Z,1006.54
2022-08-27T03:13:23.270Z,1006.56
2022-08-27T03:14:03.735Z,1006.57
2022-08-27T03:14:44.219Z,1006.55
2022-08-27T03:15:24.688Z,1006.6
2022-08-27T03:16:05.269Z,1006.6
2022-08-27T03:16:45.659Z,1006.58
2022-08-27T03:17:26.134Z,1006.6
2022-08-27T03:18:06.613Z,1006.57
2022-08-27T03:18:47.106Z,1006.61
2022-08-27T03:19:27.565Z,1006.61
2022-08-27T03:20:08.039Z,1006.54
2022-08-27T03:20:48.532Z,1006.6
2022-08-27T03:21:29.045Z,1006.64
2022-08-27T03:22:09.531Z,1006.61
2022-08-27T03:22:49.966Z,1006.57
2022-08-27T03:23:30.476Z,1006.61
2022-08-27T03:24:11.786Z,1006.62
2022-08-27T03:24:51.420Z,1006.64
2022-08-27T03:25:31.939Z,1006.64
2022-08-27T03:26:12.397Z,1006.66
2022-08-27T03:26:54.027Z,1006.65
2022-08-27T03:27:33.390Z,1006.65
2022-08-27T03:28:22.624Z,1006.67
2022-08-27T03:28:54.400Z,1006.65
2022-08-27T03:29:34.943Z,1006.68
2022-08-27T03:30:15.412Z,1006.66
2022-08-27T03:30:55.920Z,1006.65
2022-08-27T03:31:36.453Z,1006.64
2022-08-27T03:32:16.807Z,1006.65
2022-08-27T03:32:57.255Z,1006.64
2022-08-27T03:33:37.760Z,1006.63
2022-08-27T03:34:19.876Z,1006.6
2022-08-27T03:34:58.745Z,1006.63
2022-08-27T03:35:39.224Z,1006.63
2022-08-27T03:36:19.704Z,1006.61
2022-08-27T03:37:00.179Z,1006.65
2022-08-27T03:37:40.649Z,1006.67
2022-08-27T03:38:21.112Z,1006.65
2022-08-27T03:39:01.639Z,1006.66
2022-08-27T03:39:42.095Z,1006.66
2022-08-27T03:40:22.664Z,1006.67
2022-08-27T03:41:03.060Z,1006.68
2022-08-27T03:41:45.553Z,1006.68
2022-08-27T03:42:24.070Z,1006.68
2022-08-27T03:43:04.547Z,1006.68
2022-08-27T03:43:45.027Z,1006.63
2022-08-27T03:44:25.524Z,1006.64
2022-08-27T03:45:06.164Z,1006.66
2022-08-27T03:45:48.393Z,1006.66
2022-08-27T03:46:27.095Z,1006.61
2022-08-27T03:47:07.605Z,1006.65
2022-08-27T03:47:48.069Z,1006.63
2022-08-27T03:48:28.531Z,1006.6
2022-08-27T03:49:09.028Z,1006.63
2022-08-27T03:49:49.473Z,1006.61
2022-08-27T03:50:29.980Z,1006.6
2022-08-27T03:51:10.433Z,1006.57
2022-08-27T03:51:50.944Z,1006.57
2022-08-27T03:52:31.399Z,1006.61
2022-08-27T03:53:11.852Z,1006.62
2022-08-27T03:53:52.317Z,1006.61
2022-08-27T03:54:32.823Z,1006.62
2022-08-27T03:55:13.363Z,1006.63
2022-08-27T03:55:53.770Z,1006.63
2022-08-27T03:56:34.219Z,1006.59
2022-08-27T03:57:14.741Z,1006.6
2022-08-27T03:57:55.225Z,1006.59
2022-08-27T03:58:35.695Z,1006.57
2022-08-27T03:59:16.177Z,1006.58
2022-08-27T03:59:56.734Z,1006.62
2022-08-27T04:00:37.189Z,1006.57
2022-08-27T04:01:17.705Z,1006.59
2022-08-27T04:01:58.249Z,1006.59
2022-08-27T04:02:38.650Z,1006.62
2022-08-27T04:03:19.170Z,1006.61
2022-08-27T04:03:59.630Z,1006.58
2022-08-27T04:04:40.147Z,1006.58
2022-08-27T04:05:20.582Z,1006.61
2022-08-27T04:06:41.558Z,1006.58
2022-08-27T04:07:22.071Z,1006.59
2022-08-27T04:08:02.538Z,1006.6
2022-08-27T04:08:43.030Z,1006.57
2022-08-27T04:09:23.551Z,1006.6
2022-08-27T04:10:04.106Z,1006.63
2022-08-27T04:10:44.569Z,1006.64
2022-08-27T04:11:25.040Z,1006.63
2022-08-27T04:12:05.508Z,1006.61
2022-08-27T04:12:46.023Z,1006.64
2022-08-27T04:14:12.476Z,1006.58
2022-08-27T04:14:47.392Z,1006.63
2022-08-27T04:15:27.917Z,1006.62
2022-08-27T04:16:08.406Z,1006.63
2022-08-27T04:16:48.845Z,1006.65
2022-08-27T04:17:29.341Z,1006.69
2022-08-27T04:18:10.017Z,1006.67
2022-08-27T04:18:50.274Z,1006.66
2022-08-27T04:19:30.786Z,1006.68
2022-08-27T04:20:33.766Z,1006.66
2022-08-27T04:20:51.731Z,1006.69
2022-08-27T04:21:32.208Z,1006.65
2022-08-27T04:22:12.705Z,1006.69
2022-08-27T04:22:53.233Z,1006.65
2022-08-27T04:23:33.705Z,1006.65
2022-08-27T04:24:14.247Z,1006.72
2022-08-27T04:24:54.687Z,1006.66
2022-08-27T04:25:35.174Z,1006.69
2022-08-27T04:26:15.622Z,1006.72
2022-08-27T04:26:56.097Z,1006.7
2022-08-27T04:27:36.601Z,1006.71
2022-08-27T04:28:17.038Z,1006.73
2022-08-27T04:28:57.533Z,1006.73
2022-08-27T04:29:38.048Z,1006.75
2022-08-27T04:30:18.500Z,1006.75
2022-08-27T04:31:39.522Z,1006.76
2022-08-27T04:32:19.936Z,1006.76
2022-08-27T04:33:00.417Z,1006.73
2022-08-27T04:33:40.854Z,1006.75
2022-08-27T04:34:21.306Z,1006.81
2022-08-27T04:35:01.808Z,1006.77
2022-08-27T04:35:42.256Z,1006.81
2022-08-27T04:36:22.750Z,1006.78
2022-08-27T04:37:03.280Z,1006.82
2022-08-27T04:37:43.781Z,1006.8
2022-08-27T04:38:24.195Z,1006.82
2022-08-27T04:39:04.678Z,1006.79
2022-08-27T04:39:48.648Z,1006.82
2022-08-27T04:40:25.660Z,1006.84
2022-08-27T04:41:06.066Z,1006.8
2022-08-27T04:41:46.536Z,1006.83
2022-08-27T04:42:26.985Z,1006.82
2022-08-27T04:43:07.466Z,1006.83
2022-08-27T04:43:47.927Z,1006.81
2022-08-27T04:44:28.400Z,1006.81
2022-08-27T04:45:08.860Z,1006.81
2022-08-27T04:45:49.307Z,1006.8
2022-08-27T04:47:10.284Z,1006.77
2022-08-27T04:47:50.801Z,1006.8
2022-08-27T04:48:31.305Z,1006.8
2022-08-27T04:49:11.753Z,1006.82
2022-08-27T04:49:52.295Z,1006.82
2022-08-27T04:50:32.733Z,1006.84
2022-08-27T04:51:13.217Z,1006.83
2022-08-27T04:51:53.713Z,1006.84
2022-08-27T04:52:34.159Z,1006.84
2022-08-27T04:53:14.631Z,1006.85
2022-08-27T04:53:55.133Z,1006.87
2022-08-27T04:54:35.644Z,1006.85
2022-08-27T04:57:36.969Z,1006.9
2022-08-27T04:58:16.820Z,1006.87
2022-08-27T04:58:57.279Z,1006.89
2022-08-27T04:59:37.743Z,1006.91
2022-08-27T05:00:18.215Z,1006.93
2022-08-27T05:00:58.721Z,1006.92
2022-08-27T05:01:39.461Z,1006.91
2022-08-27T05:02:20.337Z,1006.95
2022-08-27T05:03:00.906Z,1006.97
2022-08-27T05:06:00.485Z,1006.94
2022-08-27T05:06:41.254Z,1006.97
2022-08-27T05:07:21.715Z,1006.98
2022-08-27T05:08:02.197Z,1006.98
2022-08-27T05:08:42.689Z,1006.99
2022-08-27T05:09:24.496Z,1006.94
2022-08-27T05:11:35.973Z,1007.01
2022-08-27T05:12:16.434Z,1006.98
2022-08-27T05:12:59.911Z,1006.99
2022-08-27T05:13:37.420Z,1007
2022-08-27T05:14:17.883Z,1006.99
2022-08-27T05:14:58.379Z,1007.01
2022-08-27T05:15:38.918Z,1007.01
2022-08-27T05:16:19.433Z,1007.03
2022-08-27T05:16:59.901Z,1007.02
2022-08-27T05:17:40.397Z,1007.01
2022-08-27T05:18:20.897Z,1007
2022-08-27T05:19:01.379Z,1007.01
2022-08-27T05:19:41.863Z,1006.95
2022-08-27T05:20:22.321Z,1006.98
2022-08-27T05:21:02.792Z,1006.97
2022-08-27T05:21:43.335Z,1006.97
2022-08-27T05:22:23.770Z,1007
2022-08-27T05:23:04.260Z,1006.96
2022-08-27T05:23:44.714Z,1006.97
2022-08-27T05:24:25.206Z,1006.94
2022-08-27T05:25:05.728Z,1006.96
2022-08-27T05:25:46.204Z,1007
2022-08-27T05:26:26.641Z,1006.98
2022-08-27T05:27:07.133Z,1006.99
2022-08-27T05:27:47.610Z,1007.03
2022-08-27T05:28:28.240Z,1007
2022-08-27T05:29:08.553Z,1007.01
2022-08-27T05:29:49.057Z,1007.04
2022-08-27T05:30:29.527Z,1007.02
2022-08-27T05:31:10.020Z,1007.01
2022-08-27T05:31:50.492Z,1007.02
2022-08-27T05:32:30.988Z,1007
2022-08-27T05:33:11.441Z,1007.03
2022-08-27T05:33:51.953Z,1007.05
2022-08-27T05:34:32.427Z,1007.05
2022-08-27T05:35:15.670Z,1007.06
2022-08-27T05:35:53.389Z,1007.04
2022-08-27T05:36:33.901Z,1007.03
2022-08-27T05:37:14.383Z,1007.06
2022-08-27T05:37:54.840Z,1007.05
2022-08-27T05:38:35.317Z,1007.03
2022-08-27T05:39:15.894Z,1007.05
2022-08-27T05:39:56.318Z,1007.02
2022-08-27T05:40:36.829Z,1007
2022-08-27T05:41:17.278Z,1007
2022-08-27T05:42:38.278Z,1006.98
2022-08-27T05:43:18.831Z,1007
2022-08-27T05:43:59.284Z,1006.97
2022-08-27T05:44:41.234Z,1006.99
2022-08-27T05:45:20.259Z,1006.99
2022-08-27T05:46:00.775Z,1006.97
2022-08-27T05:46:41.333Z,1007.01
2022-08-27T05:47:21.726Z,1007.01
2022-08-27T05:48:02.195Z,1007.01
2022-08-27T05:48:42.658Z,1006.99
2022-08-27T05:49:23.159Z,1006.99
2022-08-27T05:50:03.644Z,1006.97
2022-08-27T05:50:44.110Z,1007
2022-08-27T05:51:25.559Z,1007.03
2022-08-27T05:52:05.116Z,1007.04
2022-08-27T05:52:45.623Z,1007
2022-08-27T05:53:26.082Z,1007.03
2022-08-27T06:32:20.930Z,1007.06
2022-08-27T06:33:02.334Z,1007.08
2022-08-27T06:33:42.822Z,1007.1
2022-08-27T06:34:23.276Z,1007.09
2022-08-27T06:35:03.799Z,1007.09
2022-08-27T06:35:44.272Z,1007.05
2022-08-27T06:36:25.457Z,1007.13
2022-08-27T06:37:05.146Z,1007.12
2022-08-27T06:37:45.586Z,1007.14
2022-08-27T06:38:26.068Z,1007.14
2022-08-27T06:39:06.592Z,1007.08
2022-08-27T06:39:47.062Z,1007.09
2022-08-27T06:40:27.641Z,1007.11
2022-08-27T06:41:48.498Z,1007.1
2022-08-27T06:42:29.037Z,1007.13
2022-08-27T06:43:09.576Z,1007.09
2022-08-27T06:43:50.073Z,1007.06
2022-08-27T06:44:30.588Z,1007.11
2022-08-27T06:45:11.072Z,1007.1
2022-08-27T06:45:51.606Z,1007.1
2022-08-27T06:46:32.113Z,1007.1
2022-08-27T06:49:46.211Z,1007.1
2022-08-27T06:50:28.061Z,1007.1
2022-08-27T06:51:08.477Z,1007.12
2022-08-27T06:51:49.011Z,1007.14
2022-08-27T06:52:29.462Z,1007.15
2022-08-27T06:53:10.003Z,1007.2
2022-08-27T06:54:30.927Z,1007.15
2022-08-27T06:55:11.384Z,1007.1
2022-08-27T06:55:51.843Z,1007.1
2022-08-27T06:56:32.322Z,1007.11
2022-08-27T06:57:12.827Z,1007.11
2022-08-27T06:57:53.321Z,1007.13
2022-08-27T06:58:33.843Z,1007.12
2022-08-27T06:59:14.300Z,1007.15
2022-08-27T06:59:54.826Z,1007.15
2022-08-27T07:00:35.311Z,1007.11
2022-08-27T07:01:15.758Z,1007.13
2022-08-27T07:01:56.226Z,1007.16
2022-08-27T07:02:36.691Z,1007.12
2022-08-27T07:03:17.187Z,1007.17
2022-08-27T07:03:57.622Z,1007.16
2022-08-27T07:04:38.047Z,1007.15
2022-08-27T07:05:18.538Z,1007.16
2022-08-27T07:05:58.972Z,1007.14
2022-08-27T07:06:39.483Z,1007.1
2022-08-27T07:07:26.516Z,1007.15
2022-08-27T07:08:00.369Z,1007.13
2022-08-27T07:08:40.822Z,1007.11
2022-08-27T07:09:21.366Z,1007.14
2022-08-27T07:10:01.769Z,1007.14
2022-08-27T07:10:42.283Z,1007.11
2022-08-27T07:11:22.670Z,1007.13
2022-08-27T07:12:03.151Z,1007.15
2022-08-27T07:12:43.642Z,1007.12
2022-08-27T07:13:24.079Z,1007.14
2022-08-27T07:14:04.627Z,1007.16
2022-08-27T07:14:45.108Z,1007.15
2022-08-27T07:15:25.612Z,1007.18
2022-08-27T07:16:06.091Z,1007.22
2022-08-27T07:17:26.969Z,1007.21
2022-08-27T07:18:07.511Z,1007.21
2022-08-27T07:18:47.943Z,1007.22
2022-08-27T07:19:28.412Z,1007.21
2022-08-27T07:20:08.923Z,1007.28
2022-08-27T07:20:49.389Z,1007.22
2022-08-27T07:21:29.809Z,1007.24
2022-08-27T07:22:10.276Z,1007.27
2022-08-27T07:22:50.730Z,1007.24
2022-08-27T07:23:31.204Z,1007.27
2022-08-27T07:24:11.696Z,1007.28
2022-08-27T07:24:52.259Z,1007.27
2022-08-27T07:25:32.610Z,1007.25
2022-08-27T07:26:13.098Z,1007.24
2022-08-27T07:26:53.568Z,1007.24
2022-08-27T07:27:34.082Z,1007.29
2022-08-27T07:28:14.779Z,1007.28
2022-08-27T07:28:55.283Z,1007.28
2022-08-27T07:29:35.701Z,1007.31
2022-08-27T07:30:16.207Z,1007.26
2022-08-27T07:30:56.654Z,1007.27
2022-08-27T07:31:37.165Z,1007.27
2022-08-27T07:32:17.637Z,1007.3
2022-08-27T07:32:58.171Z,1007.29
2022-08-27T07:33:38.621Z,1007.24
2022-08-27T07:34:19.097Z,1007.29
2022-08-27T07:34:59.536Z,1007.26
2022-08-27T07:35:40.014Z,1007.31
2022-08-27T07:36:20.465Z,1007.28
2022-08-27T07:37:00.959Z,1007.3
2022-08-27T07:37:41.403Z,1007.31
2022-08-27T07:38:21.875Z,1007.3
2022-08-27T07:39:02.377Z,1007.32
2022-08-27T07:39:42.831Z,1007.36
2022-08-27T07:40:23.526Z,1007.34
2022-08-27T07:41:03.802Z,1007.33
2022-08-27T07:41:44.266Z,1007.36
2022-08-27T07:42:24.753Z,1007.36
2022-08-27T07:43:05.234Z,1007.35
2022-08-27T07:43:45.734Z,1007.36
2022-08-27T07:44:26.419Z,1007.35
2022-08-27T07:45:06.662Z,1007.37
2022-08-27T07:45:47.241Z,1007.36
2022-08-27T07:46:27.755Z,1007.4
2022-08-27T07:47:08.119Z,1007.41
2022-08-27T07:47:48.572Z,1007.38
2022-08-27T07:48:29.057Z,1007.43
2022-08-27T07:49:09.919Z,1007.39
2022-08-27T07:50:30.502Z,1007.43
2022-08-27T07:51:11.308Z,1007.4
2022-08-27T07:51:51.785Z,1007.43
2022-08-27T07:52:32.292Z,1007.44
2022-08-27T07:53:12.836Z,1007.46
2022-08-27T07:53:53.268Z,1007.43
2022-08-27T07:54:33.767Z,1007.46
2022-08-27T07:55:14.251Z,1007.45
2022-08-27T07:55:54.763Z,1007.44
2022-08-27T07:56:35.250Z,1007.44
2022-08-27T07:57:15.748Z,1007.46
2022-08-27T07:57:56.185Z,1007.49
2022-08-27T07:58:36.685Z,1007.48
2022-08-27T07:59:17.209Z,1007.44
2022-08-27T07:59:57.636Z,1007.51
2022-08-27T08:00:38.091Z,1007.48
2022-08-27T08:01:18.606Z,1007.47
2022-08-27T08:01:59.081Z,1007.49
2022-08-27T08:02:39.610Z,1007.51
2022-08-27T08:03:20.185Z,1007.51
2022-08-27T08:04:00.551Z,1007.52
2022-08-27T08:04:41.032Z,1007.47
2022-08-27T08:05:21.599Z,1007.52
2022-08-27T08:06:02.253Z,1007.53
2022-08-27T08:06:42.789Z,1007.51
2022-08-27T08:08:03.795Z,1007.5
2022-08-27T08:08:44.207Z,1007.49
2022-08-27T08:09:24.668Z,1007.49
2022-08-27T08:10:05.154Z,1007.5
2022-08-27T08:10:45.671Z,1007.53
2022-08-27T08:11:26.124Z,1007.52
2022-08-27T08:12:06.594Z,1007.53
2022-08-27T08:12:47.123Z,1007.56
2022-08-27T08:13:27.583Z,1007.49
2022-08-27T08:14:08.088Z,1007.53
2022-08-27T08:14:49.192Z,1007.5
2022-08-27T08:15:29.615Z,1007.53
2022-08-27T08:16:10.027Z,1007.5
2022-08-27T08:16:50.613Z,1007.53
2022-08-27T08:17:31.023Z,1007.58
2022-08-27T08:18:11.777Z,1007.5
2022-08-27T08:18:52.080Z,1007.52
2022-08-27T08:19:32.624Z,1007.54
2022-08-27T08:20:23.967Z,1007.55
2022-08-27T08:20:58.302Z,1007.57
2022-08-27T08:21:33.954Z,1007.58
2022-08-27T08:22:14.397Z,1007.6
2022-08-27T08:22:54.875Z,1007.6
2022-08-27T08:23:35.492Z,1007.58
2022-08-27T08:24:16.013Z,1007.57
2022-08-27T08:24:56.485Z,1007.6
2022-08-27T08:25:38.489Z,1007.61
2022-08-27T08:26:17.481Z,1007.61
2022-08-27T08:26:57.970Z,1007.6
2022-08-27T08:27:38.463Z,1007.62
2022-08-27T08:28:18.986Z,1007.64
2022-08-27T08:28:59.421Z,1007.65
2022-08-27T08:29:39.924Z,1007.66
2022-08-27T08:31:00.869Z,1007.69
2022-08-27T08:31:41.302Z,1007.69
2022-08-27T08:32:21.783Z,1007.69
2022-08-27T08:33:02.329Z,1007.71
2022-08-27T08:33:42.754Z,1007.72
2022-08-27T08:34:23.214Z,1007.74
2022-08-27T08:35:03.742Z,1007.73
2022-08-27T08:35:44.227Z,1007.73
2022-08-27T08:36:24.723Z,1007.74
2022-08-27T08:37:05.262Z,1007.74
2022-08-27T08:37:45.741Z,1007.68
2022-08-27T08:38:26.188Z,1007.68
2022-08-27T08:39:06.725Z,1007.73
2022-08-27T08:39:47.170Z,1007.72
2022-08-27T08:41:08.179Z,1007.74
2022-08-27T08:41:48.676Z,1007.72
2022-08-27T08:42:29.312Z,1007.68
2022-08-27T08:43:10.110Z,1007.7
2022-08-27T08:43:50.769Z,1007.73
2022-08-27T08:44:30.978Z,1007.74
2022-08-27T08:45:11.763Z,1007.66
2022-08-27T08:45:52.302Z,1007.72
2022-08-27T08:46:32.837Z,1007.72
2022-08-27T08:47:13.214Z,1007.74
2022-08-27T08:47:53.693Z,1007.74
2022-08-27T08:48:34.530Z,1007.75
2022-08-27T08:49:14.724Z,1007.75
2022-08-27T08:49:55.312Z,1007.75
2022-08-27T08:50:35.791Z,1007.79
2022-08-27T08:51:16.358Z,1007.78
2022-08-27T08:51:56.973Z,1007.79
2022-08-27T08:52:37.407Z,1007.78
2022-08-27T08:53:17.910Z,1007.82
2022-08-27T08:53:58.490Z,1007.83
2022-08-27T08:54:39.026Z,1007.83
2022-08-27T08:55:19.864Z,1007.87
2022-08-27T08:56:01.043Z,1007.86
2022-08-27T08:56:41.522Z,1007.87
2022-08-27T08:57:21.939Z,1007.87
2022-08-27T08:58:02.704Z,1007.84
2022-08-27T08:58:43.218Z,1007.88
2022-08-27T08:59:23.728Z,1007.86
2022-08-27T09:00:04.225Z,1007.88
2022-08-27T09:00:44.761Z,1007.9
2022-08-27T09:01:26.934Z,1007.87
2022-08-27T09:02:09.140Z,1007.89
2022-08-27T09:02:47.344Z,1007.91
2022-08-27T09:03:28.955Z,1007.89
2022-08-27T09:04:09.697Z,1007.9
2022-08-27T09:04:50.238Z,1007.87
2022-08-27T09:05:35.138Z,1007.85
2022-08-27T09:06:16.337Z,1007.86
2022-08-27T09:06:57.019Z,1007.88
2022-08-27T09:07:37.906Z,1007.86
2022-08-27T09:08:33.313Z,1007.85
2022-08-27T09:09:02.672Z,1007.9
2022-08-27T09:09:43.698Z,1007.87
2022-08-27T09:10:24.237Z,1007.87
2022-08-27T09:11:04.742Z,1007.86
2022-08-27T09:11:45.156Z,1007.92
2022-08-27T09:12:25.711Z,1007.89
2022-08-27T09:13:07.087Z,1007.92
2022-08-27T09:13:48.011Z,1007.89
2022-08-27T09:14:28.415Z,1007.97
2022-08-27T09:15:09.288Z,1007.91
2022-08-27T09:15:49.912Z,1007.93
2022-08-27T09:16:30.363Z,1007.96
2022-08-27T09:17:11.558Z,1007.94
2022-08-27T09:17:51.280Z,1007.93
2022-08-27T09:18:32.443Z,1007.99
2022-08-27T09:19:13.000Z,1007.93
2022-08-27T09:19:53.225Z,1007.97
2022-08-27T09:20:33.791Z,1007.97
2022-08-27T09:21:14.273Z,1007.95
2022-08-27T09:21:55.125Z,1007.92
2022-08-27T09:22:35.452Z,1007.96
2022-08-27T09:23:15.960Z,1007.94
2022-08-27T09:23:56.441Z,1007.99
2022-08-27T09:24:36.965Z,1007.97
2022-08-27T09:25:20.745Z,1007.99
2022-08-27T09:25:58.111Z,1007.97
2022-08-27T09:27:19.148Z,1008.02
2022-08-27T09:27:59.646Z,1008.01
2022-08-27T09:28:40.055Z,1008.02
2022-08-27T09:29:20.593Z,1008.04
2022-08-27T09:30:01.059Z,1008.01
2022-08-27T09:30:41.575Z,1008.04
2022-08-27T09:31:22.217Z,1007.96
2022-08-27T09:32:02.641Z,1007.98
2022-08-27T09:32:43.117Z,1007.99
2022-08-27T09:33:23.605Z,1007.63
2022-08-27T09:34:04.067Z,1008.01
2022-08-27T09:34:44.521Z,1008
2022-08-27T09:35:25.037Z,1007.98
2022-08-27T09:36:05.558Z,1008.02
2022-08-27T09:36:46.236Z,1008.01
2022-08-27T09:37:33.972Z,1008
2022-08-27T09:38:07.231Z,1008.04
2022-08-27T09:38:48.886Z,1007.99
2022-08-27T09:39:28.220Z,1008.05
2022-08-27T09:40:13.460Z,1008
2022-08-27T09:40:49.260Z,1008.04
2022-08-27T09:41:29.695Z,1008.02
2022-08-27T09:42:10.277Z,1008.04
2022-08-27T09:42:50.695Z,1008.04
2022-08-27T09:43:31.125Z,1008.03
2022-08-27T09:44:11.704Z,1008.04
2022-08-27T09:44:53.685Z,1008.05
2022-08-27T09:45:33.611Z,1008.05
2022-08-27T09:50:59.819Z,1008.07
2022-08-27T09:54:42.218Z,1008.08
2022-08-27T09:55:31.621Z,1008.13
2022-08-27T09:56:20.800Z,1008.12
2022-08-27T09:57:11.229Z,1008.13
2022-08-27T09:58:00.199Z,1008.13